createdAt,value
2019-03-22T00:04:01.588Z,9.26
2019-03-22T00:10:11.373Z,9.22
2019-03-22T00:12:41.245Z,8.94
2019-03-22T00:15:11.283Z,8.72
2019-03-22T00:22:59.370Z,8.85
2019-03-22T00:25:29.212Z,8.90
2019-03-22T00:27:58.995Z,8.93
2019-03-22T00:30:28.764Z,8.94
2019-03-22T00:32:58.566Z,8.88
2019-03-22T00:35:28.433Z,8.92
2019-03-22T00:37:58.394Z,8.84
2019-03-22T00:40:28.419Z,8.81
2019-03-22T00:46:44.112Z,8.83
2019-03-22T00:49:14.203Z,8.83
2019-03-22T00:51:44.282Z,8.80
2019-03-22T00:54:14.285Z,8.83
2019-03-22T00:56:44.995Z,8.82
2019-03-22T00:59:14.816Z,8.79
2019-03-22T01:01:44.735Z,8.68
2019-03-22T01:04:23.359Z,8.70
2019-03-22T01:06:53.185Z,8.72
2019-03-22T01:09:22.958Z,8.66
2019-03-22T01:11:52.975Z,8.66
2019-03-22T01:14:22.909Z,8.65
2019-03-22T01:17:22.979Z,8.66
2019-03-22T01:19:52.959Z,8.63
2019-03-22T01:22:23.399Z,8.61
2019-03-22T01:24:53.380Z,8.58
2019-03-22T01:30:45.073Z,8.51
2019-03-22T01:33:15.935Z,8.48
2019-03-22T01:38:21.619Z,8.44
2019-03-22T01:44:34.226Z,8.36
2019-03-22T01:47:04.490Z,8.34
2019-03-22T01:53:01.875Z,8.24
2019-03-22T01:55:31.948Z,8.13
2019-03-22T01:58:02.001Z,8.04
2019-03-22T02:00:54.763Z,8.01
2019-03-22T02:03:24.669Z,8.00
2019-03-22T02:05:54.890Z,8.05
2019-03-22T02:08:24.886Z,8.07
2019-03-22T02:14:43.005Z,8.08
2019-03-22T02:28:56.197Z,7.97
2019-03-22T02:31:32.464Z,7.80
2019-03-22T02:34:02.402Z,7.92
2019-03-22T02:36:32.192Z,8.03
2019-03-22T02:49:06.013Z,8.04
2019-03-22T02:51:35.835Z,8.06
2019-03-22T03:01:47.805Z,8.04
2019-03-22T03:04:17.734Z,8.07
2019-03-22T03:06:47.653Z,8.04
2019-03-22T03:10:08.850Z,8.00
2019-03-22T03:13:34.294Z,7.98
2019-03-22T03:42:09.565Z,7.63
2019-03-22T03:44:39.503Z,7.68
2019-03-22T03:47:10.705Z,7.60
2019-03-22T03:50:34.531Z,7.60
2019-03-22T03:53:04.564Z,7.59
2019-03-22T03:55:34.368Z,7.47
2019-03-22T03:58:04.262Z,7.46
2019-03-22T04:04:46.490Z,7.53
2019-03-22T04:07:16.345Z,7.48
2019-03-22T04:09:47.846Z,7.43
2019-03-22T04:12:18.519Z,7.47
2019-03-22T04:15:26.797Z,7.52
2019-03-22T04:17:56.627Z,7.52
2019-03-22T04:20:26.519Z,7.57
2019-03-22T04:22:56.268Z,7.56
2019-03-22T04:25:26.188Z,7.61
2019-03-22T04:27:56.074Z,7.58
2019-03-22T04:30:26.642Z,7.54
2019-03-22T04:32:59.913Z,7.55
2019-03-22T04:35:47.523Z,7.54
2019-03-22T04:38:41.738Z,7.46
2019-03-22T04:45:03.315Z,7.46
2019-03-22T04:47:46.197Z,7.46
2019-03-22T04:53:50.025Z,7.48
2019-03-22T04:56:22.066Z,7.52
2019-03-22T04:58:53.439Z,7.39
2019-03-22T05:01:25.624Z,7.40
2019-03-22T05:03:58.922Z,7.32
2019-03-22T05:06:28.475Z,7.29
2019-03-22T05:09:01.141Z,7.10
2019-03-22T05:11:31.283Z,6.93
2019-03-22T05:14:02.671Z,6.83
2019-03-22T05:16:34.452Z,6.72
2019-03-22T05:19:06.547Z,6.83
2019-03-22T05:21:37.343Z,6.82
2019-03-22T05:24:08.215Z,6.94
2019-03-22T05:26:40.767Z,7.05
2019-03-22T05:29:13.440Z,7.17
2019-03-22T05:34:39.870Z,7.13
2019-03-22T05:37:09.918Z,7.11
2019-03-22T05:39:44.924Z,7.06
2019-03-22T05:42:26.748Z,7.16
2019-03-22T05:45:16.016Z,7.23
2019-03-22T05:48:10.444Z,7.33
2019-03-22T05:50:42.726Z,7.41
2019-03-22T05:53:13.995Z,7.44
2019-03-22T05:55:44.594Z,7.53
2019-03-22T05:58:14.433Z,7.56
2019-03-22T06:00:44.635Z,7.63
2019-03-22T06:03:33.131Z,7.76
2019-03-22T06:06:03.926Z,7.78
2019-03-22T06:08:34.902Z,7.86
2019-03-22T06:11:33.355Z,7.89
2019-03-22T06:14:07.091Z,7.97
2019-03-22T06:17:15.641Z,8.12
2019-03-22T06:19:45.561Z,8.14
2019-03-22T06:22:16.386Z,8.14
2019-03-22T06:24:47.099Z,8.15
2019-03-22T06:27:17.327Z,8.10
2019-03-22T06:29:54.069Z,8.10
2019-03-22T06:32:19.168Z,8.11
2019-03-22T06:34:49.133Z,8.18
2019-03-22T06:37:18.976Z,8.23
2019-03-22T06:39:48.894Z,8.29
2019-03-22T06:42:18.797Z,8.13
2019-03-22T06:44:48.512Z,8.26
2019-03-22T06:47:18.346Z,8.47
2019-03-22T06:49:48.101Z,8.50
2019-03-22T06:52:17.936Z,8.59
2019-03-22T06:54:47.704Z,8.73
2019-03-22T06:57:17.502Z,8.70
2019-03-22T06:59:47.242Z,8.68
2019-03-22T07:02:17.097Z,8.59
2019-03-22T07:04:46.969Z,8.50
2019-03-22T07:07:16.781Z,8.47
2019-03-22T07:09:46.517Z,8.41
2019-03-22T07:12:16.302Z,8.59
2019-03-22T07:14:46.045Z,8.88
2019-03-22T07:17:15.834Z,9.11
2019-03-22T07:19:45.574Z,9.21
2019-03-22T07:22:15.362Z,9.18
2019-03-22T07:24:45.132Z,9.14
2019-03-22T07:27:15.090Z,9.16
2019-03-22T07:29:45.108Z,9.25
2019-03-22T07:32:15.058Z,9.27
2019-03-22T07:34:45.094Z,9.30
2019-03-22T07:37:14.888Z,9.35
2019-03-22T07:39:45.137Z,9.38
2019-03-22T07:42:17.510Z,9.56
2019-03-22T07:44:46.389Z,9.66
2019-03-22T07:47:16.108Z,9.74
2019-03-22T07:49:46.080Z,10.04
2019-03-22T07:52:16.086Z,10.19
2019-03-22T07:54:45.997Z,10.50
2019-03-22T07:57:16.030Z,10.78
2019-03-22T07:59:45.831Z,10.96
2019-03-22T08:02:15.639Z,10.90
2019-03-22T08:04:45.500Z,10.74
2019-03-22T08:07:15.251Z,10.70
2019-03-22T08:09:45.118Z,10.74
2019-03-22T08:12:14.848Z,11.07
2019-03-22T08:14:44.604Z,11.47
2019-03-22T08:17:14.407Z,11.85
2019-03-22T08:19:44.133Z,11.95
2019-03-22T08:22:14.216Z,12.19
2019-03-22T08:24:44.002Z,12.43
2019-03-22T08:27:13.817Z,12.59
2019-03-22T08:29:43.587Z,12.48
2019-03-22T08:32:13.648Z,12.48
2019-03-22T08:34:43.382Z,12.22
2019-03-22T08:37:13.231Z,12.25
2019-03-22T08:39:42.990Z,12.22
2019-03-22T08:42:12.727Z,12.21
2019-03-22T08:44:42.499Z,12.50
2019-03-22T08:47:12.231Z,12.79
2019-03-22T08:49:42.111Z,13.06
2019-03-22T08:52:12.011Z,13.33
2019-03-22T08:54:41.863Z,13.56
2019-03-22T08:57:11.620Z,13.73
2019-03-22T08:59:41.685Z,13.89
2019-03-22T09:02:11.553Z,13.99
2019-03-22T09:04:41.400Z,13.97
2019-03-22T09:07:11.166Z,14.03
2019-03-22T09:09:41.968Z,14.10
2019-03-22T09:12:11.769Z,14.17
2019-03-22T09:14:41.683Z,14.26
2019-03-22T09:17:11.399Z,14.28
2019-03-22T09:19:41.532Z,14.25
2019-03-22T09:22:11.319Z,14.16
2019-03-22T09:24:41.139Z,14.18
2019-03-22T09:27:10.869Z,14.41
2019-03-22T09:29:41.852Z,14.57
2019-03-22T09:32:11.609Z,14.49
2019-03-22T09:34:41.733Z,14.58
2019-03-22T09:37:11.549Z,14.63
2019-03-22T09:39:41.406Z,14.50
2019-03-22T09:42:11.187Z,14.40
2019-03-22T09:44:45.130Z,14.35
2019-03-22T09:47:12.430Z,13.93
2019-03-22T09:49:42.157Z,13.97
2019-03-22T09:52:11.949Z,14.20
2019-03-22T09:54:41.683Z,14.43
2019-03-22T09:57:11.506Z,14.50
2019-03-22T09:59:41.275Z,14.54
2019-03-22T10:02:11.109Z,14.48
2019-03-22T10:04:40.817Z,14.33
2019-03-22T10:07:10.866Z,14.23
2019-03-22T10:09:40.606Z,14.23
2019-03-22T10:12:10.398Z,14.47
2019-03-22T10:14:40.221Z,14.72
2019-03-22T10:17:10.082Z,14.98
2019-03-22T10:19:42.174Z,15.18
2019-03-22T10:22:11.572Z,15.36
2019-03-22T10:24:41.374Z,15.47
2019-03-22T10:27:11.276Z,15.56
2019-03-22T10:29:41.030Z,15.64
2019-03-22T10:32:10.832Z,15.64
2019-03-22T10:34:40.610Z,15.60
2019-03-22T10:37:10.421Z,15.67
2019-03-22T10:39:40.453Z,15.73
2019-03-22T10:42:10.336Z,15.72
2019-03-22T10:44:40.171Z,15.73
2019-03-22T10:47:09.968Z,15.75
2019-03-22T10:49:41.891Z,15.77
2019-03-22T10:52:11.602Z,15.79
2019-03-22T10:54:41.339Z,15.73
2019-03-22T10:57:11.186Z,15.62
2019-03-22T10:59:40.967Z,15.50
2019-03-22T11:02:11.159Z,15.43
2019-03-22T11:04:40.965Z,15.45
2019-03-22T11:07:10.757Z,15.49
2019-03-22T11:09:40.530Z,15.51
2019-03-22T11:12:12.486Z,15.49
2019-03-22T11:14:41.831Z,15.55
2019-03-22T11:17:11.619Z,15.63
2019-03-22T11:19:41.350Z,15.52
2019-03-22T11:22:11.159Z,15.52
2019-03-22T11:24:40.890Z,15.58
2019-03-22T11:27:10.628Z,15.64
2019-03-22T11:29:40.427Z,15.65
2019-03-22T11:32:12.733Z,15.63
2019-03-22T11:34:41.945Z,15.45
2019-03-22T11:37:11.694Z,15.36
2019-03-22T11:39:41.800Z,15.39
2019-03-22T11:42:11.684Z,15.39
2019-03-22T11:44:41.502Z,15.31
2019-03-22T11:47:11.270Z,15.33
2019-03-22T11:49:41.081Z,15.37
2019-03-22T11:52:10.846Z,15.36
2019-03-22T11:54:40.652Z,15.38
2019-03-22T11:57:10.385Z,15.42
2019-03-22T11:59:40.184Z,15.54
2019-03-22T12:02:10.326Z,15.50
2019-03-22T12:04:40.098Z,15.50
2019-03-22T12:07:09.868Z,15.61
2019-03-22T12:09:39.957Z,15.75
2019-03-22T12:12:09.711Z,15.76
2019-03-22T12:14:39.495Z,15.82
2019-03-22T12:17:09.240Z,15.83
2019-03-22T12:19:39.099Z,15.78
2019-03-22T12:22:09.410Z,15.64
2019-03-22T12:24:39.177Z,15.53
2019-03-22T12:27:09.060Z,15.62
2019-03-22T12:29:38.807Z,15.73
2019-03-22T12:32:08.614Z,15.79
2019-03-22T12:34:38.625Z,15.67
2019-03-22T12:37:08.689Z,15.73
2019-03-22T12:39:38.428Z,15.86
2019-03-22T12:42:08.236Z,15.89
2019-03-22T12:44:37.968Z,15.94
2019-03-22T12:47:07.898Z,16.03
2019-03-22T12:49:37.653Z,16.11
2019-03-22T12:52:07.463Z,16.05
2019-03-22T12:54:37.243Z,15.86
2019-03-22T12:57:07.021Z,15.83
2019-03-22T12:59:37.052Z,15.97
2019-03-22T13:02:06.900Z,16.01
2019-03-22T13:04:36.651Z,16.10
2019-03-22T13:07:06.439Z,16.21
2019-03-22T13:09:36.199Z,16.30
2019-03-22T13:12:06.430Z,16.36
2019-03-22T13:14:36.258Z,16.44
2019-03-22T13:17:06.057Z,16.51
2019-03-22T13:19:35.808Z,16.69
2019-03-22T13:22:05.634Z,16.83
2019-03-22T13:24:35.666Z,16.92
2019-03-22T13:27:05.472Z,16.99
2019-03-22T13:29:35.336Z,17.19
2019-03-22T13:32:05.080Z,17.27
2019-03-22T13:34:35.187Z,17.36
2019-03-22T13:37:04.926Z,17.48
2019-03-22T13:39:34.719Z,17.60
2019-03-22T13:42:04.734Z,17.60
2019-03-22T13:44:34.541Z,17.50
2019-03-22T13:47:04.268Z,17.47
2019-03-22T13:49:34.056Z,17.51
2019-03-22T13:52:03.794Z,17.71
2019-03-22T13:54:33.609Z,17.81
2019-03-22T13:57:03.362Z,17.81
2019-03-22T13:59:33.190Z,17.85
2019-03-22T14:02:02.922Z,17.86
2019-03-22T14:04:32.817Z,17.78
2019-03-22T14:07:02.555Z,17.85
2019-03-22T14:09:32.625Z,18.01
2019-03-22T14:12:02.359Z,18.29
2019-03-22T14:14:32.164Z,18.56
2019-03-22T14:17:01.888Z,18.80
2019-03-22T14:19:31.810Z,19.04
2019-03-22T14:22:01.542Z,19.11
2019-03-22T14:24:31.613Z,19.25
2019-03-22T14:27:01.369Z,19.41
2019-03-22T14:29:31.423Z,19.56
2019-03-22T14:32:01.156Z,19.68
2019-03-22T14:34:30.929Z,19.89
2019-03-22T14:37:01.024Z,20.14
2019-03-22T14:39:30.835Z,20.16
2019-03-22T14:42:00.557Z,20.30
2019-03-22T14:44:30.360Z,20.48
2019-03-22T14:47:00.371Z,20.67
2019-03-22T14:49:30.509Z,20.95
2019-03-22T14:52:00.519Z,21.00
2019-03-22T14:54:30.308Z,21.09
2019-03-22T14:57:00.032Z,21.02
2019-03-22T14:59:29.818Z,21.22
2019-03-22T15:01:59.534Z,21.43
2019-03-22T15:04:29.366Z,21.75
2019-03-22T15:06:59.097Z,21.88
2019-03-22T15:09:29.274Z,22.00
2019-03-22T15:11:59.147Z,21.71
2019-03-22T15:14:56.982Z,21.66
2019-03-22T15:17:57.907Z,21.64
2019-03-22T15:20:45.380Z,21.75
2019-03-22T15:23:43.119Z,21.91
2019-03-22T15:26:40.885Z,21.96
2019-03-22T15:29:27.913Z,22.14
2019-03-22T15:32:08.142Z,21.94
2019-03-22T15:35:00.952Z,21.97
2019-03-22T15:37:48.315Z,22.12
2019-03-22T15:40:18.049Z,22.68
2019-03-22T15:42:47.847Z,24.01
2019-03-22T15:45:17.599Z,24.63
2019-03-22T15:47:47.688Z,24.99
2019-03-22T15:50:17.479Z,24.76
2019-03-22T15:52:47.306Z,25.25
2019-03-22T15:55:17.051Z,25.90
2019-03-22T15:57:46.877Z,25.99
2019-03-22T16:00:18.203Z,25.78
2019-03-22T16:02:48.354Z,25.45
2019-03-22T16:05:18.304Z,25.31
2019-03-22T16:07:48.170Z,25.29
2019-03-22T16:10:17.978Z,24.76
2019-03-22T16:12:47.717Z,23.92
2019-03-22T16:15:18.120Z,23.39
2019-03-22T16:17:47.975Z,22.82
2019-03-22T16:20:18.108Z,22.04
2019-03-22T16:22:47.918Z,21.20
2019-03-22T16:25:17.789Z,20.58
2019-03-22T16:27:47.557Z,20.12
2019-03-22T16:30:18.843Z,19.66
2019-03-22T16:32:48.592Z,19.17
2019-03-22T16:35:18.404Z,18.83
2019-03-22T16:37:48.181Z,18.56
2019-03-22T16:40:24.137Z,18.30
2019-03-22T16:42:49.755Z,18.17
2019-03-22T16:45:39.262Z,18.02
2019-03-22T16:48:09.424Z,17.90
2019-03-22T16:50:39.266Z,17.73
2019-03-22T16:53:09.012Z,17.60
2019-03-22T16:55:38.774Z,17.47
2019-03-22T16:58:08.587Z,17.35
2019-03-22T17:00:38.475Z,17.24
2019-03-22T17:03:08.440Z,17.11
2019-03-22T17:05:38.270Z,17.00
2019-03-22T17:08:08.167Z,16.82
2019-03-22T17:10:37.938Z,16.63
2019-03-22T17:13:07.752Z,16.49
2019-03-22T17:15:37.542Z,16.35
2019-03-22T17:18:07.457Z,16.24
2019-03-22T17:20:37.237Z,16.10
2019-03-22T17:23:07.087Z,16.04
2019-03-22T17:25:36.895Z,15.96
2019-03-22T17:28:06.596Z,15.85
2019-03-22T17:30:36.800Z,15.81
2019-03-22T17:33:08.022Z,15.75
2019-03-22T17:35:38.185Z,15.70
2019-03-22T17:38:08.280Z,15.63
2019-03-22T17:40:38.375Z,15.50
2019-03-22T17:43:08.147Z,15.40
2019-03-22T17:45:37.958Z,15.32
2019-03-22T17:48:07.701Z,15.31
2019-03-22T17:50:37.502Z,15.25
2019-03-22T17:53:07.250Z,15.20
2019-03-22T17:55:37.045Z,15.21
2019-03-22T17:58:06.800Z,15.18
2019-03-22T18:00:36.788Z,15.13
2019-03-22T18:03:06.519Z,15.18
2019-03-22T18:05:36.382Z,15.15
2019-03-22T18:08:06.155Z,15.06
2019-03-22T18:10:35.964Z,14.98
2019-03-22T18:13:05.704Z,14.96
2019-03-22T18:15:35.447Z,14.91
2019-03-22T18:18:05.235Z,14.92
2019-03-22T18:20:34.966Z,14.93
2019-03-22T18:23:04.856Z,14.89
2019-03-22T18:25:34.853Z,14.82
2019-03-22T18:28:04.951Z,14.70
2019-03-22T18:30:34.731Z,14.70
2019-03-22T18:33:05.508Z,14.70
2019-03-22T18:35:35.279Z,14.67
2019-03-22T18:38:05.365Z,14.62
2019-03-22T18:40:35.169Z,14.61
2019-03-22T18:43:04.975Z,14.56
2019-03-22T18:45:34.728Z,14.48
2019-03-22T18:48:04.566Z,14.42
2019-03-22T18:50:34.605Z,14.45
2019-03-22T18:53:04.457Z,14.44
2019-03-22T18:55:34.239Z,14.38
2019-03-22T18:58:04.024Z,14.31
2019-03-22T19:00:34.008Z,14.24
2019-03-22T19:03:04.222Z,14.23
2019-03-22T19:05:34.268Z,14.16
2019-03-22T19:08:04.057Z,14.12
2019-03-22T19:10:33.864Z,14.09
2019-03-22T19:13:03.628Z,14.13
2019-03-22T19:15:33.514Z,14.14
2019-03-22T19:18:03.295Z,14.13
2019-03-22T19:20:33.254Z,14.14
2019-03-22T19:23:03.007Z,14.18
2019-03-22T19:25:32.926Z,14.17
2019-03-22T19:28:02.675Z,14.12
2019-03-22T19:30:32.989Z,14.10
2019-03-22T19:33:02.869Z,14.07
2019-03-22T19:35:32.731Z,13.98
2019-03-22T19:38:02.618Z,13.93
2019-03-22T19:40:32.476Z,13.91
2019-03-22T19:43:02.584Z,13.89
2019-03-22T19:45:32.356Z,13.77
2019-03-22T19:48:02.233Z,13.71
2019-03-22T19:50:31.997Z,13.63
2019-03-22T19:55:36.884Z,13.62
2019-03-22T19:58:06.685Z,13.58
2019-03-22T20:00:36.415Z,13.58
2019-03-22T20:03:06.200Z,13.50
2019-03-22T20:05:36.016Z,13.47
2019-03-22T20:08:05.841Z,13.46
2019-03-22T20:10:35.562Z,13.38
2019-03-22T20:13:05.347Z,13.32
2019-03-22T20:15:35.086Z,13.26
2019-03-22T20:18:04.897Z,13.22
2019-03-22T20:20:36.256Z,13.13
2019-03-22T20:23:06.103Z,13.17
2019-03-22T20:25:36.649Z,13.16
2019-03-22T20:28:06.451Z,13.19
2019-03-22T20:30:36.182Z,13.16
2019-03-22T20:33:06.099Z,13.16
2019-03-22T20:35:36.137Z,13.11
2019-03-22T20:38:06.438Z,13.03
2019-03-22T20:40:36.503Z,12.93
2019-03-22T20:43:06.303Z,12.87
2019-03-22T20:45:36.041Z,12.85
2019-03-22T20:48:05.818Z,12.75
2019-03-22T20:50:36.278Z,12.67
2019-03-22T20:53:06.176Z,12.61
2019-03-22T20:55:35.898Z,12.55
2019-03-22T20:58:05.967Z,12.52
2019-03-22T21:00:35.701Z,12.55
2019-03-22T21:03:05.490Z,12.54
2019-03-22T21:05:35.499Z,12.49
2019-03-22T21:08:05.478Z,12.51
2019-03-22T21:10:35.228Z,12.40
2019-03-22T21:13:05.274Z,12.33
2019-03-22T21:15:35.009Z,12.28
2019-03-22T21:18:04.818Z,12.24
2019-03-22T21:20:34.823Z,12.22
2019-03-22T21:23:04.625Z,12.24
2019-03-22T21:25:34.647Z,12.26
2019-03-22T21:28:04.448Z,12.28
2019-03-22T21:30:34.206Z,12.29
2019-03-22T21:33:03.991Z,12.27
2019-03-22T21:35:37.489Z,12.27
2019-03-22T21:38:10.798Z,12.28
2019-03-22T21:40:36.852Z,12.23
2019-03-22T21:43:06.653Z,12.27
2019-03-22T21:45:36.385Z,12.23
2019-03-22T21:48:06.456Z,12.28
2019-03-22T21:50:36.194Z,12.22
2019-03-22T21:53:05.926Z,12.26
2019-03-22T21:55:35.723Z,12.21
2019-03-22T21:58:05.455Z,12.11
2019-03-22T22:00:35.238Z,12.05
2019-03-22T22:03:05.260Z,11.96
2019-03-22T22:05:35.060Z,11.91
2019-03-22T22:08:05.154Z,11.82
2019-03-22T22:10:34.897Z,11.71
2019-03-22T22:13:04.631Z,11.61
2019-03-22T22:15:34.684Z,11.57
2019-03-22T22:18:04.416Z,11.51
2019-03-22T22:20:34.230Z,11.53
2019-03-22T22:23:03.971Z,11.40
2019-03-22T22:25:33.762Z,11.24
2019-03-22T22:28:03.526Z,11.08
2019-03-22T22:30:33.271Z,11.05
2019-03-22T22:33:03.003Z,10.84
2019-03-22T22:35:32.843Z,10.79
2019-03-22T22:38:02.575Z,10.77
2019-03-22T22:40:32.673Z,10.61
2019-03-22T22:43:02.410Z,10.56
2019-03-22T22:45:32.193Z,10.54
2019-03-22T22:48:01.946Z,10.59
2019-03-22T22:50:31.741Z,10.63
2019-03-22T22:53:01.476Z,10.51
2019-03-22T22:55:31.271Z,10.60
2019-03-22T22:58:01.149Z,10.53
2019-03-22T23:00:31.064Z,10.56
2019-03-22T23:03:00.797Z,10.61
2019-03-22T23:05:30.636Z,10.59
2019-03-22T23:08:00.425Z,10.60
2019-03-22T23:10:30.519Z,10.54
2019-03-22T23:13:00.259Z,10.54
2019-03-22T23:15:30.392Z,10.50
2019-03-22T23:18:00.406Z,10.51
2019-03-22T23:20:30.199Z,10.44
2019-03-22T23:22:59.951Z,10.44
2019-03-22T23:25:29.751Z,10.28
2019-03-22T23:27:59.505Z,10.18
2019-03-22T23:30:29.290Z,10.22
2019-03-22T23:32:59.311Z,10.22
2019-03-22T23:35:29.451Z,10.22
2019-03-22T23:37:59.184Z,10.14
2019-03-22T23:40:28.963Z,10.16
2019-03-22T23:42:58.704Z,10.02
2019-03-22T23:45:28.494Z,10.03
2019-03-22T23:47:58.496Z,10.09
2019-03-22T23:50:28.550Z,10.04
2019-03-22T23:52:58.553Z,10.04
2019-03-22T23:55:28.356Z,10.03
2019-03-22T23:57:58.077Z,9.97
